createdAt,value
2023-03-22T00:00:30.059Z,9.94
2023-03-22T00:02:58.217Z,10.01
2023-03-22T00:05:26.410Z,10.03
2023-03-22T00:07:57.940Z,10.06
2023-03-22T00:10:27.544Z,10.06
2023-03-22T00:13:03.275Z,10.04
2023-03-22T00:15:34.833Z,10.00
2023-03-22T00:18:06.039Z,9.98
2023-03-22T00:20:38.367Z,9.95
2023-03-22T00:23:06.636Z,9.98
2023-03-22T00:25:34.664Z,9.95
2023-03-22T00:28:02.599Z,9.93
2023-03-22T00:30:30.428Z,9.97
2023-03-22T00:32:59.716Z,10.02
2023-03-22T00:35:27.642Z,10.04
2023-03-22T00:37:56.090Z,10.05
2023-03-22T00:40:24.805Z,9.98
2023-03-22T00:42:52.611Z,9.96
2023-03-22T00:45:20.624Z,10.03
2023-03-22T00:47:48.448Z,10.03
2023-03-22T00:50:17.980Z,9.95
2023-03-22T00:52:46.025Z,9.94
2023-03-22T00:55:13.827Z,9.95
2023-03-22T00:57:41.643Z,9.89
2023-03-22T01:00:13.627Z,9.87
2023-03-22T01:02:42.505Z,9.89
2023-03-22T01:05:15.842Z,9.87
2023-03-22T01:07:46.150Z,9.88
2023-03-22T01:10:14.181Z,9.96
2023-03-22T01:12:42.064Z,10.05
2023-03-22T01:15:10.919Z,10.06
2023-03-22T01:17:38.808Z,10.07
2023-03-22T01:20:09.325Z,10.11
2023-03-22T01:22:37.143Z,10.13
2023-03-22T01:25:07.472Z,10.19
2023-03-22T01:27:35.274Z,10.12
2023-03-22T01:30:03.563Z,10.09
2023-03-22T01:32:31.378Z,10.06
2023-03-22T01:34:59.203Z,9.98
2023-03-22T01:37:29.935Z,9.94
2023-03-22T01:39:58.017Z,9.87
2023-03-22T01:42:28.449Z,9.78
2023-03-22T01:45:35.653Z,9.66
2023-03-22T01:48:07.637Z,9.70
2023-03-22T01:50:42.514Z,9.50
2023-03-22T01:53:13.683Z,9.38
2023-03-22T01:55:42.593Z,9.45
2023-03-22T01:58:18.195Z,9.37
2023-03-22T02:00:54.297Z,9.23
2023-03-22T02:03:53.588Z,9.24
2023-03-22T02:06:22.580Z,9.07
2023-03-22T02:08:58.356Z,9.12
2023-03-22T02:11:32.082Z,9.11
2023-03-22T02:14:34.802Z,9.10
2023-03-22T02:17:46.299Z,8.93
2023-03-22T02:21:06.528Z,8.82
2023-03-22T02:24:29.042Z,8.90
2023-03-22T02:27:16.137Z,8.79
2023-03-22T02:29:47.850Z,8.73
2023-03-22T02:32:48.779Z,8.71
2023-03-22T02:35:47.471Z,8.76
2023-03-22T02:39:02.048Z,8.73
2023-03-22T02:41:43.813Z,8.72
2023-03-22T02:44:22.540Z,8.83
2023-03-22T02:47:01.492Z,8.76
2023-03-22T02:49:36.269Z,8.75
2023-03-22T02:52:17.503Z,8.71
2023-03-22T02:54:53.980Z,8.60
2023-03-22T02:57:26.438Z,8.60
2023-03-22T02:59:59.329Z,8.54
2023-03-22T03:02:29.805Z,8.47
2023-03-22T03:04:58.941Z,8.40
2023-03-22T03:07:30.609Z,8.25
2023-03-22T03:09:59.891Z,8.10
2023-03-22T03:12:30.230Z,8.03
2023-03-22T03:14:58.534Z,7.96
2023-03-22T03:17:39.925Z,7.89
2023-03-22T03:20:24.214Z,7.85
2023-03-22T03:23:06.040Z,7.76
2023-03-22T03:25:43.420Z,7.64
2023-03-22T03:28:22.883Z,7.57
2023-03-22T03:30:57.901Z,7.53
2023-03-22T03:33:28.874Z,7.38
2023-03-22T03:36:01.893Z,7.26
2023-03-22T03:38:32.692Z,7.19
2023-03-22T03:41:04.810Z,7.21
2023-03-22T03:43:33.453Z,7.10
2023-03-22T03:46:01.820Z,7.07
2023-03-22T03:48:31.470Z,6.88
2023-03-22T03:51:02.182Z,6.74
2023-03-22T03:53:31.121Z,6.58
2023-03-22T03:55:58.954Z,6.58
2023-03-22T03:58:31.508Z,6.45
2023-03-22T04:00:59.349Z,6.38
2023-03-22T04:03:50.616Z,6.34
2023-03-22T04:06:35.654Z,6.29
2023-03-22T04:09:10.066Z,6.20
2023-03-22T04:11:42.542Z,6.23
2023-03-22T04:14:12.015Z,6.21
2023-03-22T04:16:39.933Z,6.17
2023-03-22T04:19:10.961Z,6.06
2023-03-22T04:21:38.835Z,6.01
2023-03-22T04:24:09.068Z,5.90
2023-03-22T04:26:40.558Z,5.75
2023-03-22T04:29:17.216Z,5.82
2023-03-22T04:31:49.871Z,5.76
2023-03-22T04:34:40.655Z,5.75
2023-03-22T04:37:14.728Z,5.67
2023-03-22T04:40:01.850Z,5.63
2023-03-22T04:42:37.646Z,5.57
2023-03-22T04:45:29.149Z,5.58
2023-03-22T04:48:01.032Z,5.54
2023-03-22T04:50:29.195Z,5.46
2023-03-22T04:53:01.132Z,5.45
2023-03-22T04:55:30.030Z,5.46
2023-03-22T04:57:57.822Z,5.38
2023-03-22T05:00:30.361Z,5.36
2023-03-22T05:02:59.206Z,5.37
2023-03-22T05:05:39.608Z,5.33
2023-03-22T05:08:07.763Z,5.32
2023-03-22T05:10:35.659Z,5.37
2023-03-22T05:13:04.097Z,5.36
2023-03-22T05:15:35.146Z,5.29
2023-03-22T05:18:05.191Z,5.26
2023-03-22T05:20:33.037Z,5.29
2023-03-22T05:23:21.122Z,5.32
2023-03-22T05:25:54.255Z,5.32
2023-03-22T05:28:22.872Z,5.30
2023-03-22T05:31:11.884Z,5.33
2023-03-22T05:33:46.630Z,5.37
2023-03-22T05:36:16.826Z,5.38
2023-03-22T05:39:03.242Z,5.46
2023-03-22T05:41:31.731Z,5.49
2023-03-22T05:43:59.559Z,5.55
2023-03-22T05:46:28.899Z,5.60
2023-03-22T05:49:26.777Z,5.67
2023-03-22T05:51:55.286Z,5.67
2023-03-22T05:54:26.524Z,5.63
2023-03-22T05:56:55.802Z,5.66
2023-03-22T05:59:24.248Z,5.82
2023-03-22T06:01:53.806Z,5.86
2023-03-22T06:04:24.624Z,5.84
2023-03-22T06:07:13.716Z,5.86
2023-03-22T06:10:05.260Z,5.84
2023-03-22T06:12:33.615Z,5.87
2023-03-22T06:15:10.435Z,5.93
2023-03-22T06:17:39.754Z,6.06
2023-03-22T06:20:14.196Z,6.06
2023-03-22T06:22:47.559Z,6.12
2023-03-22T06:25:16.687Z,6.20
2023-03-22T06:27:46.998Z,6.34
2023-03-22T06:30:15.242Z,6.43
2023-03-22T06:33:05.036Z,6.56
2023-03-22T06:35:36.902Z,6.72
2023-03-22T06:38:06.058Z,6.84
2023-03-22T06:40:35.728Z,6.94
2023-03-22T06:43:06.817Z,7.08
2023-03-22T06:45:36.642Z,7.24
2023-03-22T06:48:07.811Z,7.43
2023-03-22T06:50:52.260Z,7.59
2023-03-22T06:53:26.567Z,7.73
2023-03-22T06:55:55.448Z,7.87
2023-03-22T06:58:25.705Z,8.02
2023-03-22T07:00:53.806Z,8.12
2023-03-22T07:03:25.329Z,8.24
2023-03-22T07:06:02.249Z,8.35
2023-03-22T07:08:32.428Z,8.48
2023-03-22T07:11:00.301Z,8.65
2023-03-22T07:13:28.463Z,8.78
2023-03-22T07:16:02.763Z,8.90
2023-03-22T07:18:41.918Z,9.08
2023-03-22T07:21:10.428Z,9.27
2023-03-22T07:23:40.948Z,9.37
2023-03-22T07:26:13.429Z,9.57
2023-03-22T07:28:44.726Z,9.79
2023-03-22T07:31:15.073Z,9.90
2023-03-22T07:34:04.978Z,10.07
2023-03-22T07:36:39.481Z,10.25
2023-03-22T07:39:10.709Z,10.42
2023-03-22T07:41:43.405Z,10.48
2023-03-22T07:44:33.733Z,10.75
2023-03-22T07:47:37.755Z,10.94
2023-03-22T07:50:21.747Z,11.14
2023-03-22T07:52:54.623Z,11.26
2023-03-22T07:55:22.605Z,11.42
2023-03-22T07:57:51.188Z,11.59
2023-03-22T08:00:19.915Z,11.67
2023-03-22T08:02:57.506Z,11.68
2023-03-22T08:05:58.874Z,11.80
2023-03-22T08:08:27.397Z,11.99
2023-03-22T08:10:55.269Z,12.10
2023-03-22T08:13:23.106Z,12.21
2023-03-22T08:15:50.954Z,12.44
2023-03-22T08:18:20.767Z,12.58
2023-03-22T08:20:56.254Z,12.77
2023-03-22T08:23:38.523Z,12.81
2023-03-22T08:26:27.786Z,13.08
2023-03-22T08:28:58.413Z,13.13
2023-03-22T08:31:26.482Z,13.15
2023-03-22T08:33:55.006Z,13.34
2023-03-22T08:36:24.494Z,13.36
2023-03-22T08:39:04.174Z,13.47
2023-03-22T08:41:44.531Z,13.59
2023-03-22T08:44:12.462Z,13.76
2023-03-22T08:46:41.306Z,13.90
2023-03-22T08:49:10.439Z,14.10
2023-03-22T08:51:49.260Z,14.21
2023-03-22T08:54:21.599Z,14.23
2023-03-22T08:57:03.214Z,14.33
2023-03-22T08:59:40.946Z,14.55
2023-03-22T09:02:30.906Z,14.68
2023-03-22T09:04:59.949Z,14.71
2023-03-22T09:07:30.413Z,14.93
2023-03-22T09:10:20.863Z,15.16
2023-03-22T09:12:52.407Z,15.24
2023-03-22T09:15:20.770Z,15.32
2023-03-22T09:18:02.052Z,15.45
2023-03-22T09:20:30.132Z,15.53
2023-03-22T09:22:59.365Z,15.77
2023-03-22T09:25:27.454Z,16.03
2023-03-22T09:27:55.585Z,15.99
2023-03-22T09:30:23.639Z,15.97
2023-03-22T09:32:51.596Z,16.04
2023-03-22T09:35:21.922Z,16.27
2023-03-22T09:38:01.383Z,16.54
2023-03-22T09:40:31.550Z,16.58
2023-03-22T09:43:03.368Z,16.59
2023-03-22T09:45:38.475Z,16.45
2023-03-22T09:48:12.836Z,16.53
2023-03-22T09:50:46.691Z,16.52
2023-03-22T09:53:17.516Z,16.56
2023-03-22T09:55:51.826Z,16.86
2023-03-22T09:58:26.752Z,17.00
2023-03-22T10:01:01.124Z,17.20
2023-03-22T10:03:53.556Z,17.27
2023-03-22T10:06:23.543Z,17.38
2023-03-22T10:09:00.971Z,17.39
2023-03-22T10:11:41.031Z,17.34
2023-03-22T10:14:23.472Z,17.50
2023-03-22T10:16:55.318Z,17.58
2023-03-22T10:19:28.385Z,17.59
2023-03-22T10:21:58.601Z,17.69
2023-03-22T10:24:32.774Z,17.52
2023-03-22T10:27:01.167Z,17.62
2023-03-22T10:29:35.346Z,17.71
2023-03-22T10:32:16.516Z,17.54
2023-03-22T10:34:44.912Z,17.78
2023-03-22T10:37:17.110Z,17.98
2023-03-22T10:39:49.865Z,18.08
2023-03-22T10:42:21.677Z,17.88
2023-03-22T10:44:51.927Z,18.14
2023-03-22T10:47:30.587Z,18.37
2023-03-22T10:50:01.951Z,18.55
2023-03-22T10:52:39.589Z,18.67
2023-03-22T10:55:11.633Z,18.63
2023-03-22T10:57:41.027Z,18.45
2023-03-22T11:00:11.552Z,18.53
2023-03-22T11:02:48.025Z,18.36
2023-03-22T11:05:23.875Z,18.60
2023-03-22T11:07:51.998Z,18.68
2023-03-22T11:10:28.436Z,18.88
2023-03-22T11:13:11.841Z,19.11
2023-03-22T11:15:56.449Z,19.28
2023-03-22T11:18:25.976Z,19.45
2023-03-22T11:20:59.033Z,19.42
2023-03-22T11:23:28.507Z,19.58
2023-03-22T11:26:06.089Z,19.69
2023-03-22T11:28:36.521Z,19.70
2023-03-22T11:31:07.702Z,19.94
2023-03-22T11:33:36.796Z,19.85
2023-03-22T11:36:15.884Z,19.85
2023-03-22T11:38:45.594Z,19.95
2023-03-22T11:41:23.246Z,20.01
2023-03-22T11:43:54.370Z,20.07
2023-03-22T11:46:23.152Z,20.20
2023-03-22T11:48:53.387Z,20.45
2023-03-22T11:51:30.896Z,20.47
2023-03-22T11:54:07.644Z,20.60
2023-03-22T11:56:42.493Z,20.87
2023-03-22T11:59:15.309Z,21.15
2023-03-22T12:01:49.471Z,20.95
2023-03-22T12:04:22.493Z,21.07
2023-03-22T12:06:53.689Z,21.11
2023-03-22T12:09:29.440Z,21.25
2023-03-22T12:12:02.713Z,21.26
2023-03-22T12:14:36.710Z,21.65
2023-03-22T12:17:11.511Z,21.75
2023-03-22T12:19:49.725Z,21.47
2023-03-22T12:22:21.989Z,21.17
2023-03-22T12:24:49.950Z,21.59
2023-03-22T12:27:24.116Z,21.37
2023-03-22T12:29:56.031Z,21.40
2023-03-22T12:32:28.394Z,21.00
2023-03-22T12:35:09.259Z,21.48
2023-03-22T12:37:47.341Z,21.52
2023-03-22T12:40:21.666Z,21.75
2023-03-22T12:43:00.382Z,21.68
2023-03-22T12:45:31.281Z,21.05
2023-03-22T12:48:07.278Z,21.10
2023-03-22T12:50:40.268Z,21.18
2023-03-22T12:53:13.840Z,20.96
2023-03-22T12:55:42.473Z,20.51
2023-03-22T12:58:16.105Z,20.54
2023-03-22T13:00:48.756Z,20.51
2023-03-22T13:03:26.860Z,20.77
2023-03-22T13:06:04.599Z,21.15
2023-03-22T13:09:12.980Z,21.49
2023-03-22T13:11:41.136Z,21.58
2023-03-22T13:14:13.354Z,21.50
2023-03-22T13:17:00.742Z,21.52
2023-03-22T13:19:33.596Z,21.35
2023-03-22T13:22:22.507Z,21.03
2023-03-22T13:25:16.705Z,20.46
2023-03-22T13:27:53.766Z,20.37
2023-03-22T13:30:28.127Z,20.48
2023-03-22T13:33:03.462Z,20.99
2023-03-22T13:35:44.096Z,21.25
2023-03-22T13:38:21.059Z,21.58
2023-03-22T13:40:55.518Z,22.34
2023-03-22T13:43:34.217Z,22.54
2023-03-22T13:46:44.594Z,22.20
2023-03-22T13:49:28.912Z,22.33
2023-03-22T13:51:59.883Z,22.45
2023-03-22T13:54:33.658Z,22.29
2023-03-22T13:57:01.795Z,21.71
2023-03-22T13:59:33.863Z,21.49
2023-03-22T14:02:15.685Z,21.56
2023-03-22T14:04:47.522Z,21.31
2023-03-22T14:07:23.787Z,21.17
2023-03-22T14:09:54.356Z,21.33
2023-03-22T14:12:26.650Z,21.04
2023-03-22T14:14:58.172Z,20.96
2023-03-22T14:17:38.852Z,21.09
2023-03-22T14:20:10.444Z,20.96
